Time;durP1;ratioP1;P1;durP2;ratioP2;P2;SDS_P1;SDS_P2;PMS_P1;PMS_P2;Temp;Humidity;BMP_temperature;BMP_pressure;BME280_temperature;BME280_humidity;BME280_pressure;Samples;Min_cycle;Max_cycle;Signal;HPM_P1;HPM_P2
2023/02/18 00:00:18;;;;;;;1.13;1.03;;;9.00;97.30;;;;;;5123416;27;20274;-86
2023/02/18 00:02:45;;;;;;;1.00;0.90;;;8.90;97.30;;;;;;5134072;27;20181;-86
2023/02/18 00:05:11;;;;;;;2.80;1.70;;;8.90;97.30;;;;;;5136966;27;20419;-86
2023/02/18 00:07:39;;;;;;;1.00;0.90;;;8.80;97.30;;;;;;5124266;27;20307;-86
2023/02/18 00:10:07;;;;;;;1.60;1.50;;;8.80;97.30;;;;;;5133743;27;20426;-86
2023/02/18 00:12:32;;;;;;;1.47;1.37;;;8.70;97.30;;;;;;5122506;27;20430;-85
2023/02/18 00:14:58;;;;;;;1.00;0.90;;;8.60;97.30;;;;;;5123086;27;20426;-86
2023/02/18 00:17:24;;;;;;;1.27;1.17;;;8.60;97.30;;;;;;5127520;27;20599;-86
2023/02/18 00:19:50;;;;;;;0.93;0.83;;;8.60;97.30;;;;;;5131092;27;20229;-86
2023/02/18 00:22:15;;;;;;;2.30;1.47;;;8.50;97.30;;;;;;5143161;27;20432;-86
2023/02/18 00:24:41;;;;;;;1.40;1.30;;;8.50;97.30;;;;;;5137938;27;20180;-86
2023/02/18 00:27:07;;;;;;;1.00;0.90;;;8.40;97.30;;;;;;5137899;27;20279;-86
2023/02/18 00:29:32;;;;;;;1.00;0.90;;;8.40;97.30;;;;;;5120840;27;20537;-86
2023/02/18 00:31:58;;;;;;;1.30;1.20;;;8.40;97.30;;;;;;5135636;27;20176;-86
2023/02/18 00:34:23;;;;;;;1.10;1.00;;;8.40;97.30;;;;;;5127203;27;20191;-86
2023/02/18 00:36:49;;;;;;;1.33;1.23;;;8.40;97.30;;;;;;5134836;27;20299;-84
2023/02/18 00:39:14;;;;;;;1.30;1.20;;;8.40;97.30;;;;;;5117710;27;20177;-86
2023/02/18 00:41:40;;;;;;;2.40;2.20;;;8.30;97.30;;;;;;5126732;27;20181;-86
2023/02/18 00:44:06;;;;;;;1.03;0.93;;;8.30;97.30;;;;;;5132800;27;20208;-86
2023/02/18 00:46:32;;;;;;;1.00;0.90;;;8.30;97.30;;;;;;5131519;27;20448;-85
2023/02/18 00:48:58;;;;;;;1.30;1.20;;;8.20;97.30;;;;;;5114720;27;20785;-86
2023/02/18 00:51:24;;;;;;;1.20;1.10;;;8.20;97.30;;;;;;5118514;27;20231;-86
2023/02/18 00:53:50;;;;;;;1.20;1.10;;;8.20;97.30;;;;;;5115518;27;20188;-86
2023/02/18 00:56:15;;;;;;;1.20;1.10;;;8.20;97.30;;;;;;5117395;27;20613;-86
2023/02/18 00:58:41;;;;;;;1.30;1.20;;;8.20;97.30;;;;;;5116659;27;20183;-87
2023/02/18 01:01:08;;;;;;;1.00;0.90;;;8.20;97.30;;;;;;5133136;27;20259;-86
2023/02/18 01:03:35;;;;;;;1.20;1.10;;;8.20;97.30;;;;;;5133463;27;20471;-86
2023/02/18 01:06:00;;;;;;;1.20;1.10;;;8.20;97.30;;;;;;5122686;27;20232;-86
2023/02/18 01:08:26;;;;;;;3.83;1.23;;;8.20;97.30;;;;;;5113514;28;20433;-85
2023/02/18 01:10:54;;;;;;;1.57;1.47;;;8.10;97.30;;;;;;5122438;27;20184;-86
2023/02/18 01:13:20;;;;;;;1.87;1.77;;;8.10;97.30;;;;;;5119646;27;20433;-86
2023/02/18 01:15:46;;;;;;;2.30;1.30;;;8.00;97.30;;;;;;5132075;28;20461;-86
2023/02/18 01:18:12;;;;;;;1.10;1.00;;;8.00;97.30;;;;;;5114061;28;20421;-86
2023/02/18 01:20:40;;;;;;;13.33;1.60;;;8.00;97.30;;;;;;5124638;28;20184;-86
2023/02/18 01:23:06;;;;;;;1.47;1.37;;;8.00;97.30;;;;;;5131295;28;20410;-86
2023/02/18 01:25:33;;;;;;;1.30;1.20;;;7.90;97.30;;;;;;5113758;28;20322;-86
2023/02/18 01:27:58;;;;;;;0.90;0.80;;;7.90;97.30;;;;;;5122414;28;20406;-86
2023/02/18 01:30:24;;;;;;;2.47;2.27;;;7.90;97.30;;;;;;5117535;28;20406;-86
2023/02/18 01:32:50;;;;;;;1.07;0.97;;;7.90;97.30;;;;;;5125106;28;20255;-86
2023/02/18 01:35:18;;;;;;;1.20;1.20;;;7.90;97.30;;;;;;5118282;28;20229;-85
2023/02/18 01:37:44;;;;;;;1.47;1.37;;;7.90;97.30;;;;;;5134277;27;20836;-85
2023/02/18 01:40:12;;;;;;;1.30;1.20;;;7.90;97.30;;;;;;5137664;27;20821;-86
2023/02/18 01:42:38;;;;;;;2.30;2.10;;;8.00;97.30;;;;;;5133303;27;21030;-85
2023/02/18 01:45:36;;;;;;;1.00;0.90;;;8.00;97.30;;;;;;5138608;27;20486;-86
2023/02/18 01:48:07;;;;;;;1.33;1.30;;;8.00;97.30;;;;;;5130529;27;20565;-86
2023/02/18 01:50:35;;;;;;;2.13;1.97;;;8.00;97.30;;;;;;5121786;27;20935;-85
2023/02/18 01:53:02;;;;;;;1.97;1.87;;;8.00;97.30;;;;;;5155652;27;20421;-85
2023/02/18 01:55:27;;;;;;;5.37;2.50;;;8.00;97.30;;;;;;5119724;27;20494;-86
2023/02/18 01:57:53;;;;;;;3.00;2.80;;;8.10;97.30;;;;;;5133961;27;20500;-85
2023/02/18 02:00:22;;;;;;;4.30;2.50;;;8.10;97.30;;;;;;5123266;27;20225;-85
2023/02/18 02:02:50;;;;;;;1.03;0.93;;;8.10;97.30;;;;;;5118200;27;20425;-85
2023/02/18 02:05:16;;;;;;;1.53;1.43;;;8.10;97.30;;;;;;5126560;27;20527;-86
2023/02/18 02:07:43;;;;;;;1.17;1.10;;;8.20;97.30;;;;;;5134835;27;20407;-86
2023/02/18 02:10:12;;;;;;;1.63;1.10;;;8.20;97.30;;;;;;5124961;27;20906;-85
2023/02/18 02:13:00;;;;;;;0.97;0.87;;;8.20;97.30;;;;;;5131698;27;20418;-86
2023/02/18 02:15:33;;;;;;;3.23;1.10;;;8.20;97.30;;;;;;5130937;27;20503;-86
2023/02/18 02:18:14;;;;;;;1.03;0.93;;;8.20;97.30;;;;;;5135762;27;20415;-85
2023/02/18 02:21:03;;;;;;;1.40;1.30;;;8.20;97.30;;;;;;5136423;27;20555;-86
2023/02/18 02:24:25;;;;;;;1.10;1.00;;;8.20;97.30;;;;;;5116953;27;20406;-86
2023/02/18 02:27:14;;;;;;;1.00;0.90;;;8.20;97.30;;;;;;5077402;28;20522;-83
2023/02/18 02:29:51;;;;;;;3.53;1.77;;;8.20;97.30;;;;;;5095636;28;20411;-86
2023/02/18 02:32:47;;;;;;;1.50;1.40;;;8.20;97.30;;;;;;5123538;27;20414;-86
2023/02/18 02:35:28;;;;;;;1.20;1.10;;;8.20;97.30;;;;;;5119694;27;20407;-85
2023/02/18 02:41:43;;;;;;;2.30;1.60;;;8.20;97.30;;;;;;5134102;27;20436;-85
2023/02/18 02:44:29;;;;;;;1.10;1.00;;;8.30;97.30;;;;;;5080600;27;20547;-85
2023/02/18 02:47:06;;;;;;;0.90;0.80;;;8.30;97.30;;;;;;5136821;27;20495;-86
2023/02/18 02:50:16;;;;;;;0.97;0.87;;;8.30;97.30;;;;;;5115961;27;20419;-86
2023/02/18 02:52:48;;;;;;;2.50;1.10;;;8.30;97.30;;;;;;5107636;27;20422;-86
2023/02/18 02:55:14;;;;;;;1.93;1.00;;;8.30;97.30;;;;;;5118976;27;20426;-85
2023/02/18 02:57:44;;;;;;;3.27;1.67;;;8.30;97.30;;;;;;5120011;27;20503;-86
2023/02/18 03:00:12;;;;;;;1.30;1.20;;;8.30;97.30;;;;;;5135730;27;20710;-86
2023/02/18 03:03:11;;;;;;;3.43;3.23;;;8.30;97.30;;;;;;5117513;27;20414;-84
2023/02/18 03:05:57;;;;;;;1.03;0.93;;;8.30;97.30;;;;;;5117241;27;20461;-86
2023/02/18 03:08:53;;;;;;;1.10;1.00;;;8.40;97.30;;;;;;5135614;27;20426;-85
2023/02/18 03:11:19;;;;;;;0.97;0.90;;;8.40;97.30;;;;;;5121175;27;20933;-86
2023/02/18 03:14:07;;;;;;;1.20;1.10;;;8.40;97.30;;;;;;5127144;27;20496;-85
2023/02/18 03:16:50;;;;;;;3.10;1.67;;;8.40;97.30;;;;;;5119917;27;20225;-86
2023/02/18 03:19:26;;;;;;;1.10;1.00;;;8.40;97.30;;;;;;5120869;27;20411;-85
2023/02/18 03:22:04;;;;;;;0.90;0.80;;;8.40;97.30;;;;;;5126488;27;20492;-84
2023/02/18 03:24:33;;;;;;;1.93;1.50;;;8.50;97.30;;;;;;5116610;27;20414;-83
2023/02/18 03:27:07;;;;;;;1.20;1.10;;;8.50;97.30;;;;;;5115541;27;20513;-86
2023/02/18 03:29:33;;;;;;;2.30;1.83;;;8.50;97.30;;;;;;5120718;27;21178;-85
2023/02/18 03:32:03;;;;;;;1.50;1.40;;;8.50;97.30;;;;;;5134444;27;20406;-85
2023/02/18 03:34:33;;;;;;;1.20;1.10;;;8.50;97.30;;;;;;5116410;27;20490;-86
2023/02/18 03:37:00;;;;;;;1.00;0.90;;;8.50;97.30;;;;;;5134767;27;20462;-85
2023/02/18 03:39:28;;;;;;;1.63;1.53;;;8.50;97.30;;;;;;5134681;27;20514;-85
2023/02/18 03:41:53;;;;;;;1.30;1.20;;;8.50;97.30;;;;;;5116129;27;20781;-85
2023/02/18 03:44:19;;;;;;;1.20;1.10;;;8.50;97.30;;;;;;5115092;27;20419;-85
2023/02/18 03:46:44;;;;;;;1.30;1.20;;;8.50;97.30;;;;;;5114787;27;20288;-86
2023/02/18 03:49:11;;;;;;;1.10;1.00;;;8.50;97.30;;;;;;5131881;27;20177;-86
2023/02/18 03:51:37;;;;;;;1.47;1.27;;;8.50;97.30;;;;;;5118519;27;20711;-85
2023/02/18 03:54:03;;;;;;;4.63;1.53;;;8.50;97.30;;;;;;5132108;27;20419;-86
2023/02/18 03:56:28;;;;;;;12.60;2.23;;;8.50;97.30;;;;;;5132639;27;20208;-86
2023/02/18 03:58:54;;;;;;;1.30;1.20;;;8.50;97.30;;;;;;5122614;27;20181;-86
2023/02/18 04:01:20;;;;;;;1.30;1.20;;;8.50;97.30;;;;;;5114393;27;20169;-85
2023/02/18 04:03:45;;;;;;;1.53;1.43;;;8.50;97.30;;;;;;5134657;27;20234;-85
2023/02/18 04:06:11;;;;;;;4.70;1.73;;;8.50;97.30;;;;;;5135006;27;20435;-85
2023/02/18 04:08:36;;;;;;;6.43;1.67;;;8.50;97.30;;;;;;5116758;27;20261;-85
2023/02/18 04:11:03;;;;;;;1.27;1.17;;;8.50;97.30;;;;;;5134666;27;20181;-86
2023/02/18 04:13:29;;;;;;;1.30;1.20;;;8.50;97.30;;;;;;5134795;27;20545;-85
2023/02/18 04:15:55;;;;;;;2.00;1.90;;;8.40;97.30;;;;;;5125481;27;20462;-86
2023/02/18 04:18:21;;;;;;;15.73;1.80;;;8.50;97.30;;;;;;5114903;27;20366;-86
2023/02/18 04:20:46;;;;;;;2.40;2.20;;;8.50;97.30;;;;;;5114824;27;20177;-86
2023/02/18 04:23:12;;;;;;;3.90;2.73;;;8.50;97.30;;;;;;5124286;27;20169;-86
2023/02/18 04:25:38;;;;;;;3.60;1.63;;;8.50;97.30;;;;;;5118730;27;20671;-86
2023/02/18 04:28:04;;;;;;;3.53;2.90;;;8.40;97.30;;;;;;5123634;27;20659;-85
2023/02/18 04:30:29;;;;;;;2.60;2.40;;;8.50;97.30;;;;;;5132804;27;20184;-84
2023/02/18 04:32:55;;;;;;;3.17;1.30;;;8.50;97.30;;;;;;5132969;27;20411;-86
2023/02/18 04:35:20;;;;;;;1.23;1.13;;;8.40;97.30;;;;;;5133062;27;20170;-86
2023/02/18 04:37:46;;;;;;;1.77;1.70;;;8.40;97.30;;;;;;5132978;27;20678;-85
2023/02/18 04:40:11;;;;;;;0.90;0.80;;;8.40;97.30;;;;;;5115110;27;20251;-83
2023/02/18 04:42:37;;;;;;;1.67;1.13;;;8.40;97.30;;;;;;5132078;27;20169;-83
2023/02/18 04:45:03;;;;;;;1.53;1.07;;;8.40;97.30;;;;;;5124423;27;20181;-86
2023/02/18 04:47:31;;;;;;;1.80;1.20;;;8.40;97.30;;;;;;5114899;27;20702;-86
2023/02/18 04:49:56;;;;;;;1.87;1.30;;;8.40;97.30;;;;;;5114797;27;20419;-86
2023/02/18 04:52:22;;;;;;;1.10;1.00;;;8.40;97.30;;;;;;5121650;27;20414;-85
2023/02/18 04:54:47;;;;;;;1.00;0.90;;;8.40;97.30;;;;;;5128925;27;20294;-85
2023/02/18 04:57:13;;;;;;;2.30;1.57;;;8.30;97.30;;;;;;5130773;27;20208;-85
2023/02/18 04:59:39;;;;;;;4.70;3.10;;;8.30;97.30;;;;;;5127476;27;20219;-85
2023/02/18 05:02:04;;;;;;;2.60;2.40;;;8.30;97.30;;;;;;5122616;27;20176;-86
2023/02/18 05:04:30;;;;;;;1.77;1.67;;;8.30;97.30;;;;;;5114181;27;20283;-85
2023/02/18 05:06:56;;;;;;;1.80;1.70;;;8.40;97.30;;;;;;5114196;27;20201;-86
2023/02/18 05:09:21;;;;;;;4.83;1.73;;;8.40;97.30;;;;;;5129625;27;20245;-85
2023/02/18 05:11:47;;;;;;;2.23;1.00;;;8.40;97.30;;;;;;5122571;28;20185;-85
2023/02/18 05:14:13;;;;;;;5.70;2.60;;;8.40;97.30;;;;;;5132149;27;20727;-85
2023/02/18 05:16:39;;;;;;;3.20;3.00;;;8.40;97.30;;;;;;5127092;27;20531;-85
2023/02/18 05:19:05;;;;;;;3.83;2.20;;;8.40;97.30;;;;;;5131472;28;20415;-86
2023/02/18 05:21:31;;;;;;;8.73;2.90;;;8.40;97.30;;;;;;5128014;28;20693;-86
2023/02/18 05:23:56;;;;;;;16.17;2.37;;;8.40;97.30;;;;;;5113518;28;20173;-85
2023/02/18 05:26:22;;;;;;;8.23;1.77;;;8.40;97.30;;;;;;5113474;28;20438;-85
2023/02/18 05:28:48;;;;;;;2.87;2.10;;;8.40;97.30;;;;;;5113845;28;20183;-85
2023/02/18 05:31:14;;;;;;;3.13;2.07;;;8.40;97.30;;;;;;5122972;28;20269;-84
2023/02/18 05:33:39;;;;;;;2.07;1.93;;;8.40;97.30;;;;;;5118562;28;20510;-85
2023/02/18 05:36:05;;;;;;;7.03;3.50;;;8.30;97.30;;;;;;5113874;28;20704;-85
2023/02/18 05:38:30;;;;;;;1.20;1.10;;;8.40;97.30;;;;;;5116519;28;20181;-85
2023/02/18 05:40:56;;;;;;;2.40;1.43;;;8.30;97.30;;;;;;5129977;28;20196;-85
2023/02/18 05:43:21;;;;;;;3.30;2.63;;;8.30;97.30;;;;;;5130364;28;20185;-86
2023/02/18 05:45:47;;;;;;;4.30;2.30;;;8.40;97.30;;;;;;5124649;28;20204;-85
2023/02/18 05:48:12;;;;;;;1.67;1.57;;;8.40;97.30;;;;;;5113585;28;20192;-84
2023/02/18 05:50:38;;;;;;;1.23;1.13;;;8.40;97.30;;;;;;5117043;28;20595;-85
2023/02/18 05:53:03;;;;;;;2.93;2.73;;;8.40;97.30;;;;;;5122034;28;20278;-85
2023/02/18 05:55:29;;;;;;;6.60;2.63;;;8.40;97.30;;;;;;5131464;28;20220;-85
2023/02/18 05:57:54;;;;;;;1.70;1.60;;;8.40;97.30;;;;;;5128016;28;20682;-86
2023/02/18 06:00:20;;;;;;;2.00;1.30;;;8.40;97.30;;;;;;5131412;28;20188;-85
2023/02/18 06:02:45;;;;;;;5.70;2.63;;;8.40;97.30;;;;;;5132410;28;20177;-84
2023/02/18 06:05:11;;;;;;;2.93;2.73;;;8.40;97.30;;;;;;5113451;28;20196;-85
2023/02/18 06:07:37;;;;;;;1.63;1.53;;;8.40;97.30;;;;;;5113212;28;20228;-86
2023/02/18 06:10:03;;;;;;;3.33;3.17;;;8.40;97.30;;;;;;5131319;28;20185;-85
2023/02/18 06:12:29;;;;;;;3.43;2.10;;;8.40;97.30;;;;;;5115465;28;20189;-86
2023/02/18 06:14:54;;;;;;;5.63;3.60;;;8.50;97.30;;;;;;5131459;28;20419;-86
2023/02/18 06:17:21;;;;;;;3.03;1.97;;;8.40;97.30;;;;;;5119844;28;20228;-85
2023/02/18 06:19:47;;;;;;;2.07;1.93;;;8.40;97.30;;;;;;5125080;28;20166;-84
2023/02/18 06:22:12;;;;;;;4.60;3.10;;;8.40;97.30;;;;;;5128522;28;20410;-84
2023/02/18 06:24:38;;;;;;;2.20;2.00;;;8.40;97.30;;;;;;5132843;27;20177;-85
2023/02/18 06:27:04;;;;;;;3.20;3.00;;;8.40;97.30;;;;;;5133031;27;20294;-86
2023/02/18 06:29:30;;;;;;;6.83;3.83;;;8.40;97.30;;;;;;5133154;27;20333;-85
2023/02/18 06:31:56;;;;;;;13.87;5.20;;;8.40;97.30;;;;;;5133971;27;20173;-86
2023/02/18 06:34:22;;;;;;;3.53;2.33;;;8.40;97.30;;;;;;5115721;27;20419;-85
2023/02/18 06:36:47;;;;;;;2.80;1.93;;;8.40;97.30;;;;;;5133853;27;20465;-84
2023/02/18 06:39:13;;;;;;;4.60;3.00;;;8.40;97.30;;;;;;5134961;27;20430;-85
2023/02/18 06:41:39;;;;;;;2.63;2.43;;;8.40;97.30;;;;;;5134320;27;20717;-85
2023/02/18 06:44:04;;;;;;;2.90;2.00;;;8.40;97.30;;;;;;5134299;27;20559;-86
2023/02/18 06:46:30;;;;;;;17.47;5.17;;;8.40;97.30;;;;;;5118538;27;20430;-85
2023/02/18 06:48:55;;;;;;;2.77;2.57;;;8.40;97.30;;;;;;5126885;27;20188;-85
2023/02/18 06:51:21;;;;;;;4.70;2.40;;;8.40;97.30;;;;;;5123268;27;20180;-85
2023/02/18 06:53:47;;;;;;;2.80;2.60;;;8.40;97.30;;;;;;5116234;27;20181;-85
2023/02/18 06:56:12;;;;;;;3.90;2.40;;;8.40;97.30;;;;;;5127900;27;20295;-85
2023/02/18 06:58:37;;;;;;;6.73;4.53;;;8.40;97.30;;;;;;5124332;27;20179;-85
2023/02/18 07:01:03;;;;;;;1.33;1.30;;;8.40;97.30;;;;;;5123866;27;20188;-85
2023/02/18 07:03:29;;;;;;;3.20;3.00;;;8.40;97.30;;;;;;5132638;27;20212;-85
2023/02/18 07:05:54;;;;;;;3.00;2.40;;;8.40;97.30;;;;;;5117669;27;20212;-85
2023/02/18 07:08:20;;;;;;;2.37;2.17;;;8.40;97.30;;;;;;5133362;27;20201;-86
2023/02/18 07:10:46;;;;;;;7.23;4.90;;;8.40;97.30;;;;;;5127853;27;20658;-86
2023/02/18 07:13:12;;;;;;;3.33;2.20;;;8.40;97.30;;;;;;5131983;27;20220;-85
2023/02/18 07:15:38;;;;;;;13.10;3.47;;;8.40;97.30;;;;;;5114727;27;20527;-86
2023/02/18 07:18:04;;;;;;;6.30;3.90;;;8.40;97.30;;;;;;5122006;27;20688;-86
2023/02/18 07:20:29;;;;;;;8.00;6.13;;;8.40;97.30;;;;;;5116962;27;20181;-86
2023/02/18 07:22:55;;;;;;;3.53;2.83;;;8.40;97.30;;;;;;5132108;27;20467;-86
2023/02/18 07:25:21;;;;;;;3.47;2.63;;;8.40;97.30;;;;;;5114723;27;20267;-87
2023/02/18 07:27:47;;;;;;;7.77;3.37;;;8.40;97.30;;;;;;5128365;27;20176;-86
2023/02/18 07:30:12;;;;;;;2.80;2.60;;;8.40;97.30;;;;;;5132091;27;20430;-85
2023/02/18 07:32:38;;;;;;;11.13;4.53;;;8.40;97.30;;;;;;5118466;27;20234;-85
2023/02/18 07:35:05;;;;;;;7.80;4.80;;;8.50;97.30;;;;;;5119301;27;20428;-86
2023/02/18 07:37:31;;;;;;;7.50;4.33;;;8.50;97.30;;;;;;5114491;27;20281;-86
2023/02/18 07:39:57;;;;;;;3.13;2.93;;;8.50;97.30;;;;;;5114446;27;20414;-86
2023/02/18 07:42:23;;;;;;;7.10;3.63;;;8.50;97.30;;;;;;5121958;27;20422;-86
2023/02/18 07:44:48;;;;;;;8.23;4.90;;;8.50;97.30;;;;;;5127132;27;20180;-86
2023/02/18 07:47:18;;;;;;;3.63;3.43;;;8.60;97.30;;;;;;5114797;27;20246;-86
2023/02/18 07:49:44;;;;;;;1.53;1.37;;;8.60;97.30;;;;;;5123058;27;20367;-86
2023/02/18 07:52:09;;;;;;;9.53;3.33;;;8.60;97.30;;;;;;5115470;27;20373;-86
2023/02/18 07:54:35;;;;;;;4.03;3.80;;;8.60;97.30;;;;;;5125870;27;20176;-86
2023/02/18 07:57:00;;;;;;;51.30;5.10;;;8.60;97.30;;;;;;5131404;27;20205;-86
2023/02/18 07:59:26;;;;;;;3.83;3.63;;;8.70;97.30;;;;;;5129922;27;20217;-85
2023/02/18 08:01:51;;;;;;;4.30;2.13;;;8.70;97.30;;;;;;5119685;27;20229;-84
2023/02/18 08:04:17;;;;;;;3.37;2.00;;;8.70;97.30;;;;;;5114328;27;20180;-86
2023/02/18 08:06:45;;;;;;;5.53;2.90;;;8.70;97.30;;;;;;5119039;27;20196;-87
2023/02/18 08:09:12;;;;;;;14.80;4.33;;;8.80;97.30;;;;;;5114055;27;20211;-85
2023/02/18 08:11:38;;;;;;;4.57;2.30;;;8.80;97.30;;;;;;5122880;27;20426;-86
2023/02/18 08:14:04;;;;;;;3.63;3.10;;;8.80;97.30;;;;;;5114136;27;20876;-85
2023/02/18 08:16:29;;;;;;;6.20;2.97;;;8.90;97.30;;;;;;5115785;27;20282;-85
2023/02/18 08:18:55;;;;;;;3.60;3.20;;;8.90;97.30;;;;;;5132549;27;20688;-87
2023/02/18 08:21:22;;;;;;;2.40;2.20;;;9.00;97.30;;;;;;5114104;27;20271;-86
2023/02/18 08:23:48;;;;;;;1.50;1.40;;;9.00;97.30;;;;;;5122605;27;20176;-86
2023/02/18 08:26:14;;;;;;;1.57;1.47;;;9.00;97.30;;;;;;5121736;27;20240;-86
2023/02/18 08:28:40;;;;;;;2.63;1.83;;;9.10;97.30;;;;;;5113899;27;20916;-85
2023/02/18 08:31:06;;;;;;;3.40;2.30;;;9.10;97.30;;;;;;5113789;27;20975;-86
2023/02/18 08:33:32;;;;;;;4.97;2.30;;;9.20;97.30;;;;;;5115851;27;20422;-86
2023/02/18 08:35:58;;;;;;;2.90;2.70;;;9.20;97.30;;;;;;5124601;27;20438;-85
2023/02/18 08:38:24;;;;;;;2.00;1.83;;;9.30;97.30;;;;;;5130158;27;20435;-86
2023/02/18 08:40:50;;;;;;;1.00;0.90;;;9.30;97.30;;;;;;5113649;27;20172;-86
2023/02/18 08:43:17;;;;;;;4.17;1.70;;;9.40;97.30;;;;;;5122057;27;20414;-86
2023/02/18 08:45:43;;;;;;;1.63;1.53;;;9.50;97.30;;;;;;5118517;27;20562;-86
2023/02/18 08:48:11;;;;;;;1.77;1.03;;;9.50;97.30;;;;;;5121497;27;20422;-86
2023/02/18 08:50:37;;;;;;;1.87;1.53;;;9.60;97.30;;;;;;5116037;27;20208;-86
2023/02/18 08:53:03;;;;;;;1.43;1.30;;;9.70;97.30;;;;;;5115660;27;20766;-86
2023/02/18 08:55:30;;;;;;;1.77;1.67;;;9.70;97.30;;;;;;5120440;27;20212;-86
2023/02/18 08:57:55;;;;;;;0.97;0.87;;;9.80;97.30;;;;;;5127843;27;20458;-84
2023/02/18 09:00:21;;;;;;;1.40;1.30;;;9.90;97.30;;;;;;5137377;27;20285;-82
2023/02/18 09:02:46;;;;;;;1.20;1.10;;;10.00;97.30;;;;;;5133786;27;20187;-82
2023/02/18 09:05:13;;;;;;;1.77;1.67;;;10.00;97.30;;;;;;5138064;27;20172;-82
2023/02/18 09:07:39;;;;;;;0.90;0.80;;;10.10;97.30;;;;;;5138911;27;20176;-82
2023/02/18 09:10:05;;;;;;;1.20;1.10;;;10.10;97.30;;;;;;5127839;27;20218;-87
2023/02/18 09:12:30;;;;;;;1.30;1.23;;;10.20;97.30;;;;;;5119092;28;20201;-85
2023/02/18 09:14:56;;;;;;;1.73;1.37;;;10.20;97.30;;;;;;5127250;27;20992;-85
2023/02/18 09:17:22;;;;;;;1.60;1.17;;;10.30;97.30;;;;;;5121104;27;20270;-85
2023/02/18 09:19:47;;;;;;;1.37;1.20;;;10.30;97.30;;;;;;5131463;28;20478;-85
2023/02/18 09:22:14;;;;;;;0.90;0.80;;;10.30;97.30;;;;;;5113685;28;20181;-85
2023/02/18 09:24:40;;;;;;;1.33;1.30;;;10.30;97.30;;;;;;5130944;28;20184;-85
2023/02/18 09:27:07;;;;;;;0.90;0.80;;;10.30;97.30;;;;;;5121561;28;20251;-86
2023/02/18 09:29:36;;;;;;;1.20;1.10;;;10.30;97.30;;;;;;5112635;28;21015;-85
2023/02/18 09:32:03;;;;;;;1.00;0.90;;;10.30;97.30;;;;;;5118801;28;20999;-86
2023/02/18 09:34:28;;;;;;;1.20;1.13;;;10.40;97.30;;;;;;5130969;28;20449;-86
2023/02/18 09:36:54;;;;;;;1.53;0.97;;;10.40;97.30;;;;;;5112566;28;20315;-86
2023/02/18 09:39:20;;;;;;;1.10;1.00;;;10.40;97.30;;;;;;5121111;28;20250;-85
2023/02/18 09:41:58;;;;;;;1.00;0.90;;;10.50;97.30;;;;;;5118076;28;20176;-85
2023/02/18 09:44:41;;;;;;;0.90;0.80;;;10.50;97.30;;;;;;5096615;28;20176;-85
2023/02/18 09:47:30;;;;;;;0.87;0.77;;;10.60;97.30;;;;;;5129563;28;20528;-85
2023/02/18 09:50:02;;;;;;;1.00;0.90;;;10.60;97.30;;;;;;5112691;28;20690;-85
2023/02/18 09:52:32;;;;;;;0.87;0.77;;;10.60;97.30;;;;;;5112734;28;20430;-85
2023/02/18 09:54:58;;;;;;;0.80;0.70;;;10.70;97.30;;;;;;5130643;28;20859;-84
2023/02/18 09:57:28;;;;;;;1.00;0.90;;;10.70;97.30;;;;;;5131039;27;20561;-85
2023/02/18 10:00:11;;;;;;;1.00;0.90;;;10.70;97.30;;;;;;5124029;27;20730;-85
2023/02/18 10:02:40;;;;;;;1.00;0.90;;;10.70;97.30;;;;;;5110115;27;20916;-85
2023/02/18 10:05:10;;;;;;;0.90;0.80;;;10.80;97.30;;;;;;5115826;27;20500;-85
2023/02/18 10:07:37;;;;;;;0.83;0.73;;;10.90;97.30;;;;;;5135270;27;20465;-85
2023/02/18 10:10:35;;;;;;;0.90;0.80;;;11.00;97.30;;;;;;5116460;27;20220;-85
2023/02/18 10:13:01;;;;;;;1.17;1.07;;;11.00;97.30;;;;;;5134207;27;21111;-85
2023/02/18 10:15:30;;;;;;;1.60;1.50;;;11.10;97.30;;;;;;5132766;27;20254;-85
2023/02/18 10:17:57;;;;;;;0.80;0.70;;;11.10;97.30;;;;;;5119782;27;20461;-85
2023/02/18 10:20:26;;;;;;;1.20;1.10;;;11.20;97.30;;;;;;5117692;27;20418;-85
2023/02/18 10:22:54;;;;;;;0.90;0.80;;;11.30;97.30;;;;;;5135863;27;20425;-85
2023/02/18 10:25:22;;;;;;;0.80;0.70;;;11.30;97.30;;;;;;5119920;27;20427;-85
2023/02/18 10:27:51;;;;;;;0.90;0.80;;;11.40;97.30;;;;;;5139465;27;20418;-85
2023/02/18 10:30:22;;;;;;;1.00;0.90;;;11.50;97.30;;;;;;5138890;27;20425;-86
2023/02/18 10:32:54;;;;;;;1.50;1.40;;;11.50;97.30;;;;;;5135924;27;20399;-86
2023/02/18 10:35:37;;;;;;;1.50;1.20;;;11.60;97.30;;;;;;5126813;27;20429;-86
2023/02/18 10:38:03;;;;;;;1.20;1.10;;;11.70;97.30;;;;;;5116309;27;20499;-86
2023/02/18 10:41:03;;;;;;;0.90;0.80;;;11.70;97.30;;;;;;5134569;27;20222;-87
2023/02/18 10:44:12;;;;;;;0.90;0.80;;;11.80;97.30;;;;;;5133136;27;20166;-86
2023/02/18 10:46:52;;;;;;;0.90;0.80;;;11.90;97.30;;;;;;5045511;28;20472;-86
2023/02/18 10:49:52;;;;;;;0.90;0.80;;;12.00;97.30;;;;;;5131503;27;20464;-85
2023/02/18 10:52:19;;;;;;;0.90;0.80;;;12.00;97.30;;;;;;5124399;27;20449;-85
2023/02/18 10:55:10;;;;;;;1.20;1.10;;;12.10;97.30;;;;;;5135585;27;20401;-86
2023/02/18 10:57:49;;;;;;;0.90;0.80;;;12.10;97.30;;;;;;5117465;27;20466;-85
2023/02/18 11:00:22;;;;;;;2.20;1.03;;;12.20;97.30;;;;;;5134205;27;20451;-85
2023/02/18 11:03:21;;;;;;;1.00;0.90;;;12.20;97.30;;;;;;5119382;27;20439;-86
2023/02/18 11:05:50;;;;;;;1.15;0.95;;;12.20;97.30;;;;;;5123079;27;20236;-86
2023/02/18 11:08:26;;;;;;;0.90;0.80;;;12.20;97.30;;;;;;5125575;27;20461;-85
2023/02/18 11:10:53;;;;;;;1.00;0.90;;;12.20;97.30;;;;;;5115191;27;20457;-86
2023/02/18 11:13:27;;;;;;;0.90;0.80;;;12.20;97.30;;;;;;5134432;27;20429;-85
2023/02/18 11:15:55;;;;;;;0.70;0.70;;;12.20;97.30;;;;;;5115586;27;20484;-86
2023/02/18 11:18:40;;;;;;;1.00;0.90;;;12.20;97.30;;;;;;5124300;27;21006;-85
2023/02/18 11:21:35;;;;;;;0.70;0.70;;;12.20;97.30;;;;;;5121644;27;20462;-84
2023/02/18 11:24:15;;;;;;;0.95;0.85;;;12.20;97.30;;;;;;5115944;27;20429;-84
2023/02/18 11:26:43;;;;;;;0.90;0.80;;;12.30;97.30;;;;;;5134167;27;20472;-86
2023/02/18 11:29:21;;;;;;;1.00;0.90;;;12.30;97.30;;;;;;5115635;27;20972;-85
2023/02/18 11:31:50;;;;;;;0.90;0.80;;;12.20;97.30;;;;;;5120793;27;20785;-86
2023/02/18 11:34:28;;;;;;;0.80;0.80;;;12.20;97.30;;;;;;5122499;27;20526;-85
2023/02/18 11:36:54;;;;;;;0.80;0.70;;;12.20;97.30;;;;;;5114986;27;20976;-86
2023/02/18 11:39:26;;;;;;;1.13;1.03;;;12.20;97.30;;;;;;5123425;27;20426;-85
2023/02/18 11:41:59;;;;;;;0.90;0.80;;;12.20;97.30;;;;;;5114704;27;20422;-86
2023/02/18 11:44:35;;;;;;;1.10;1.00;;;12.10;97.30;;;;;;5122991;27;20406;-85
2023/02/18 11:47:11;;;;;;;0.70;0.70;;;12.10;97.30;;;;;;5114678;27;20790;-86
2023/02/18 11:49:38;;;;;;;0.90;0.80;;;12.00;97.30;;;;;;5114802;27;20422;-86
2023/02/18 11:52:31;;;;;;;0.90;0.80;;;12.00;97.30;;;;;;5114871;27;20268;-85
2023/02/18 11:55:05;;;;;;;0.95;0.85;;;12.00;97.30;;;;;;5119133;27;20420;-85
2023/02/18 11:57:35;;;;;;;1.00;0.90;;;12.00;97.30;;;;;;5124802;27;20509;-86
2023/02/18 12:00:03;;;;;;;1.20;1.10;;;12.00;97.30;;;;;;5133351;27;20760;-85
2023/02/18 12:02:39;;;;;;;0.90;0.80;;;12.00;97.30;;;;;;5114673;27;20314;-86
2023/02/18 12:05:32;;;;;;;1.00;0.95;;;12.00;97.30;;;;;;5120704;27;20452;-84
2023/02/18 12:08:09;;;;;;;1.70;1.60;;;12.00;97.30;;;;;;5132745;27;20753;-86
2023/02/18 12:11:00;;;;;;;0.90;0.80;;;12.00;97.30;;;;;;5123179;27;20445;-86
2023/02/18 12:13:38;;;;;;;1.00;0.90;;;12.00;97.30;;;;;;5123463;27;20410;-85
2023/02/18 12:16:35;;;;;;;0.60;0.60;;;12.10;97.30;;;;;;5114191;27;20536;-86
2023/02/18 12:19:03;;;;;;;1.00;0.90;;;12.10;97.30;;;;;;5119005;27;20414;-86
2023/02/18 12:22:00;;;;;;;0.90;0.80;;;12.20;97.30;;;;;;5113922;27;20432;-85
2023/02/18 12:24:53;;;;;;;1.30;1.20;;;12.10;97.30;;;;;;5122904;27;20414;-85
2023/02/18 12:27:37;;;;;;;1.00;0.90;;;12.10;97.30;;;;;;5132878;27;20236;-85
2023/02/18 12:30:17;;;;;;;0.90;0.80;;;12.10;97.30;;;;;;5133514;27;20285;-85
2023/02/18 12:33:07;;;;;;;0.90;0.80;;;12.10;97.30;;;;;;5116287;27;20418;-86
2023/02/18 12:35:57;;;;;;;0.90;0.80;;;12.10;97.30;;;;;;5105831;27;20422;-86
2023/02/18 12:38:56;;;;;;;1.00;0.90;;;12.10;97.30;;;;;;5121546;27;20258;-86
2023/02/18 12:41:31;;;;;;;8.35;1.20;;;12.10;97.30;;;;;;5113671;27;20210;-86
2023/02/18 12:44:16;;;;;;;1.00;1.00;;;12.10;97.30;;;;;;5130887;27;20220;-86
2023/02/18 12:47:19;;;;;;;0.90;0.80;;;12.10;97.30;;;;;;5132108;27;20445;-86
2023/02/18 12:50:10;;;;;;;0.90;0.80;;;12.10;97.30;;;;;;5118691;27;20247;-87
2023/02/18 12:53:03;;;;;;;1.00;0.90;;;12.00;97.30;;;;;;5130831;27;20510;-84
2023/02/18 12:55:50;;;;;;;1.00;0.90;;;11.90;97.30;;;;;;5122040;27;20857;-86
2023/02/18 12:58:55;;;;;;;0.90;0.80;;;11.90;97.30;;;;;;5120511;27;20282;-86
2023/02/18 13:01:55;;;;;;;1.35;0.95;;;11.90;97.30;;;;;;5112522;27;20526;-86
2023/02/18 13:04:34;;;;;;;0.90;0.80;;;12.00;97.30;;;;;;5122833;27;20414;-86
2023/02/18 13:07:24;;;;;;;1.00;0.90;;;12.00;97.30;;;;;;5126018;27;20856;-86
2023/02/18 13:10:03;;;;;;;1.00;0.90;;;12.10;97.30;;;;;;5107849;28;21092;-87
2023/02/18 13:12:37;;;;;;;1.10;1.00;;;12.10;97.30;;;;;;5113172;27;20480;-87
2023/02/18 13:15:07;;;;;;;1.10;1.00;;;12.10;97.30;;;;;;5117603;27;20449;-87